createdAt,value
2019-02-23T00:01:28.575Z,89.00
2019-02-23T00:03:56.901Z,87.20
2019-02-23T00:06:29.923Z,85.40
2019-02-23T00:08:54.317Z,85.30
2019-02-23T00:11:22.745Z,84.30
2019-02-23T00:13:51.087Z,84.50
2019-02-23T00:16:19.351Z,85.50
2019-02-23T00:18:47.618Z,85.20
2019-02-23T00:21:15.894Z,85.40
2019-02-23T00:23:44.159Z,85.00
2019-02-23T00:26:12.448Z,86.00
2019-02-23T00:28:40.716Z,85.50
2019-02-23T00:31:09.003Z,85.70
2019-02-23T00:33:37.279Z,86.60
2019-02-23T00:36:05.559Z,86.80
2019-02-23T00:38:33.825Z,86.20
2019-02-23T00:41:02.206Z,86.50
2019-02-23T00:43:30.477Z,86.40
2019-02-23T00:45:58.754Z,86.40
2019-02-23T00:48:27.021Z,87.20
2019-02-23T00:50:55.295Z,87.50
2019-02-23T00:53:23.643Z,87.60
2019-02-23T00:55:52.774Z,87.90
2019-02-23T00:58:21.046Z,87.90
2019-02-23T01:00:49.321Z,87.90
2019-02-23T01:03:17.636Z,87.50
2019-02-23T01:05:46.011Z,87.50
2019-02-23T01:08:14.277Z,87.10
2019-02-23T01:10:42.639Z,87.10
2019-02-23T01:13:10.901Z,87.60
2019-02-23T01:15:39.172Z,88.10
2019-02-23T01:18:07.458Z,88.00
2019-02-23T01:20:35.731Z,88.10
2019-02-23T01:23:04.007Z,87.60
2019-02-23T01:25:32.383Z,87.10
2019-02-23T01:28:00.656Z,87.00
2019-02-23T01:30:28.939Z,87.00
2019-02-23T01:32:57.261Z,86.40
2019-02-23T01:35:25.504Z,86.80
2019-02-23T01:37:53.875Z,86.60
2019-02-23T01:40:22.135Z,86.70
2019-02-23T01:42:50.407Z,86.80
2019-02-23T01:45:18.700Z,87.00
2019-02-23T01:47:46.967Z,87.40
2019-02-23T01:50:15.258Z,87.20
2019-02-23T01:52:43.635Z,87.00
2019-02-23T01:55:11.912Z,87.50
2019-02-23T01:57:40.195Z,86.90
2019-02-23T02:00:09.395Z,87.10
2019-02-23T02:02:37.668Z,87.20
2019-02-23T02:05:05.947Z,86.90
2019-02-23T02:07:34.299Z,87.60
2019-02-23T02:10:02.582Z,87.50
2019-02-23T02:12:30.850Z,87.00
2019-02-23T02:14:59.111Z,87.10
2019-02-23T02:17:27.389Z,87.30
2019-02-23T02:19:55.674Z,87.30
2019-02-23T02:22:24.047Z,87.10
2019-02-23T02:24:52.294Z,87.40
2019-02-23T02:27:21.415Z,86.50
2019-02-23T02:29:49.679Z,86.50
2019-02-23T02:32:17.974Z,87.10
2019-02-23T02:34:46.215Z,87.80
2019-02-23T02:37:15.236Z,89.50
2019-02-23T02:39:43.617Z,89.50
2019-02-23T02:42:11.893Z,89.50
2019-02-23T02:44:40.161Z,89.20
2019-02-23T02:47:08.432Z,89.60
2019-02-23T02:49:36.759Z,89.60
2019-02-23T02:52:05.924Z,88.90
2019-02-23T02:54:34.305Z,88.80
2019-02-23T02:57:02.595Z,88.20
2019-02-23T02:59:30.860Z,88.40
2019-02-23T03:01:59.226Z,88.90
2019-02-23T03:04:27.482Z,87.80
2019-02-23T03:06:55.766Z,88.60
2019-02-23T03:09:24.043Z,88.30
2019-02-23T03:11:52.320Z,87.50
2019-02-23T03:14:20.595Z,88.20
2019-02-23T03:16:48.864Z,88.50
2019-02-23T03:19:17.259Z,88.10
2019-02-23T03:21:45.599Z,87.90
2019-02-23T03:24:13.887Z,87.60
2019-02-23T03:26:42.163Z,87.80
2019-02-23T03:29:10.447Z,87.50
2019-02-23T03:31:38.728Z,88.00
2019-02-23T03:34:07.108Z,88.70
2019-02-23T03:36:35.501Z,88.30
2019-02-23T03:39:03.773Z,88.70
2019-02-23T03:41:32.113Z,89.00
2019-02-23T03:44:00.371Z,89.70
2019-02-23T03:46:28.654Z,90.20
2019-02-23T03:48:57.018Z,90.30
2019-02-23T03:51:25.347Z,90.00
2019-02-23T03:53:53.734Z,90.10
2019-02-23T03:56:21.995Z,89.80
2019-02-23T03:58:50.271Z,90.00
2019-02-23T04:01:18.655Z,89.90
2019-02-23T04:03:47.026Z,89.40
2019-02-23T04:06:15.311Z,89.80
2019-02-23T04:08:43.731Z,90.00
2019-02-23T04:11:12.773Z,89.70
2019-02-23T04:13:41.093Z,89.60
2019-02-23T04:16:10.145Z,90.20
2019-02-23T04:18:38.440Z,90.20
2019-02-23T04:21:06.796Z,90.50
2019-02-23T04:23:35.155Z,90.80
2019-02-23T04:26:03.448Z,90.50
2019-02-23T04:28:31.842Z,89.90
2019-02-23T04:31:00.205Z,89.90
2019-02-23T04:33:28.502Z,90.10
2019-02-23T04:35:56.758Z,90.00
2019-02-23T04:38:25.014Z,90.00
2019-02-23T04:40:53.304Z,89.30
2019-02-23T04:43:21.609Z,90.30
2019-02-23T04:45:49.975Z,90.10
2019-02-23T04:48:18.341Z,89.80
2019-02-23T04:50:46.712Z,89.30
2019-02-23T04:53:15.087Z,89.70
2019-02-23T04:55:43.343Z,89.90
2019-02-23T04:58:11.632Z,90.40
2019-02-23T05:00:40.027Z,90.10
2019-02-23T05:03:08.402Z,89.90
2019-02-23T05:05:36.691Z,89.90
2019-02-23T05:08:05.185Z,89.50
2019-02-23T05:10:33.423Z,90.10
2019-02-23T05:13:01.788Z,90.30
2019-02-23T05:15:30.092Z,90.10
2019-02-23T05:17:58.455Z,90.00
2019-02-23T05:20:26.748Z,89.80
2019-02-23T05:22:55.111Z,89.10
2019-02-23T05:25:23.406Z,89.20
2019-02-23T05:27:51.692Z,89.30
2019-02-23T05:30:19.988Z,88.50
2019-02-23T05:32:48.319Z,88.80
2019-02-23T05:35:16.691Z,89.20
2019-02-23T05:37:44.995Z,89.90
2019-02-23T05:40:13.291Z,89.10
2019-02-23T05:42:41.547Z,89.50
2019-02-23T05:45:09.859Z,88.70
2019-02-23T05:47:38.178Z,89.30
2019-02-23T05:50:06.549Z,89.30
2019-02-23T05:52:34.868Z,89.10
2019-02-23T05:55:04.018Z,88.30
2019-02-23T05:57:32.299Z,88.70
2019-02-23T06:00:00.562Z,88.10
2019-02-23T06:02:28.955Z,88.90
2019-02-23T06:04:57.279Z,89.00
2019-02-23T06:07:25.598Z,87.50
2019-02-23T06:09:53.899Z,86.80
2019-02-23T06:12:22.171Z,86.00
2019-02-23T06:14:50.545Z,85.00
2019-02-23T06:17:18.868Z,85.20
2019-02-23T06:19:47.926Z,84.10
2019-02-23T06:22:16.211Z,84.10
2019-02-23T06:24:45.376Z,83.10
2019-02-23T06:27:13.755Z,83.10
2019-02-23T06:29:42.175Z,83.20
2019-02-23T06:32:10.510Z,82.40
2019-02-23T06:34:38.807Z,82.00
2019-02-23T06:37:07.088Z,81.60
2019-02-23T06:39:36.154Z,80.80
2019-02-23T06:42:04.454Z,80.80
2019-02-23T06:44:32.799Z,80.50
2019-02-23T06:47:01.057Z,80.10
2019-02-23T06:49:29.323Z,80.90
2019-02-23T06:52:04.180Z,80.70
2019-02-23T06:54:25.983Z,79.70
2019-02-23T06:56:54.287Z,79.30
2019-02-23T06:59:22.564Z,79.40
2019-02-23T07:01:50.851Z,80.20
2019-02-23T07:04:19.207Z,79.80
2019-02-23T07:06:47.510Z,79.30
2019-02-23T07:09:15.814Z,78.60
2019-02-23T07:11:44.880Z,79.70
2019-02-23T07:14:13.177Z,79.70
2019-02-23T07:16:42.238Z,78.50
2019-02-23T07:19:10.541Z,78.50
2019-02-23T07:21:38.822Z,77.00
2019-02-23T07:24:07.971Z,77.10
2019-02-23T07:26:36.259Z,77.00
2019-02-23T07:29:04.534Z,77.50
2019-02-23T07:31:32.826Z,77.40
2019-02-23T07:34:01.187Z,75.10
2019-02-23T07:36:29.562Z,75.10
2019-02-23T07:38:57.863Z,74.40
2019-02-23T07:41:26.154Z,72.70
2019-02-23T07:43:55.208Z,70.90
2019-02-23T07:46:23.506Z,70.90
2019-02-23T07:48:51.848Z,69.40
2019-02-23T07:51:20.131Z,69.60
2019-02-23T07:53:48.373Z,68.60
2019-02-23T07:56:16.718Z,68.30
2019-02-23T07:58:45.775Z,65.10
2019-02-23T08:01:14.079Z,64.90
2019-02-23T08:03:42.354Z,63.40
2019-02-23T08:06:10.691Z,62.40
2019-02-23T08:08:38.999Z,62.20
2019-02-23T08:11:07.279Z,60.10
2019-02-23T08:13:35.539Z,57.90
2019-02-23T08:16:03.837Z,57.20
2019-02-23T08:18:32.082Z,56.30
2019-02-23T08:21:00.328Z,55.80
2019-02-23T08:23:29.351Z,52.70
2019-02-23T08:25:57.717Z,52.70
2019-02-23T08:28:25.954Z,53.60
2019-02-23T08:30:54.216Z,51.80
2019-02-23T08:33:23.967Z,52.30
2019-02-23T08:35:52.243Z,52.30
2019-02-23T08:38:20.523Z,50.10
2019-02-23T08:40:48.827Z,49.70
2019-02-23T08:43:17.095Z,48.50
2019-02-23T08:45:45.363Z,46.20
2019-02-23T08:48:13.643Z,43.60
2019-02-23T08:50:41.904Z,41.20
2019-02-23T08:53:10.179Z,40.40
2019-02-23T08:55:38.667Z,40.90
2019-02-23T08:58:07.038Z,38.80
2019-02-23T09:00:35.287Z,38.30
2019-02-23T09:03:03.550Z,34.40
2019-02-23T09:05:31.914Z,36.00
2019-02-23T09:08:00.134Z,34.60
2019-02-23T09:10:28.375Z,33.60
2019-02-23T09:12:56.660Z,33.60
2019-02-23T09:15:24.918Z,33.50
2019-02-23T09:17:54.063Z,34.20
2019-02-23T09:20:29.160Z,34.10
2019-02-23T09:22:59.722Z,38.10
2019-02-23T09:25:19.934Z,38.10
2019-02-23T09:27:48.278Z,35.20
2019-02-23T09:30:16.543Z,34.90
2019-02-23T09:32:44.914Z,29.70
2019-02-23T09:35:13.197Z,30.10
2019-02-23T09:37:41.488Z,30.50
2019-02-23T09:40:10.614Z,30.90
2019-02-23T09:42:38.959Z,33.00
2019-02-23T09:45:07.284Z,32.40
2019-02-23T09:47:35.535Z,30.90
2019-02-23T09:50:03.961Z,30.30
2019-02-23T09:52:32.267Z,30.70
2019-02-23T09:55:00.651Z,29.50
2019-02-23T09:57:29.143Z,29.20
2019-02-23T09:59:57.411Z,27.90
2019-02-23T10:02:25.731Z,27.50
2019-02-23T10:04:54.064Z,26.00
2019-02-23T10:07:22.441Z,26.20
2019-02-23T10:09:50.815Z,24.30
2019-02-23T10:12:19.104Z,23.90
2019-02-23T10:14:47.447Z,23.70
2019-02-23T10:17:15.774Z,25.30
2019-02-23T10:19:44.122Z,25.50
2019-02-23T10:22:12.494Z,25.80
2019-02-23T10:24:40.770Z,26.10
2019-02-23T10:27:09.048Z,27.30
2019-02-23T10:29:37.307Z,27.40
2019-02-23T10:32:05.577Z,28.20
2019-02-23T10:34:33.851Z,28.20
2019-02-23T10:37:02.148Z,27.30
2019-02-23T10:39:30.414Z,27.30
2019-02-23T10:41:58.700Z,26.30
2019-02-23T10:44:27.027Z,27.00
2019-02-23T10:46:56.164Z,27.00
2019-02-23T10:49:24.450Z,27.00
2019-02-23T10:51:52.817Z,28.70
2019-02-23T10:54:21.091Z,28.40
2019-02-23T10:56:49.512Z,27.50
2019-02-23T10:59:19.307Z,26.30
2019-02-23T11:01:47.574Z,26.30
2019-02-23T11:04:15.846Z,25.80
2019-02-23T11:06:44.127Z,25.50
2019-02-23T11:09:12.403Z,24.50
2019-02-23T11:11:40.893Z,25.20
2019-02-23T11:14:09.235Z,24.70
2019-02-23T11:16:37.534Z,25.40
2019-02-23T11:19:05.810Z,24.10
2019-02-23T11:21:34.739Z,24.50
2019-02-23T11:24:03.904Z,24.80
2019-02-23T11:26:32.254Z,24.80
2019-02-23T11:29:00.530Z,24.70
2019-02-23T11:31:28.921Z,24.60
2019-02-23T11:33:57.191Z,24.40
2019-02-23T11:36:25.667Z,24.10
2019-02-23T11:38:53.971Z,25.00
2019-02-23T11:41:22.415Z,25.10
2019-02-23T11:43:50.718Z,24.50
2019-02-23T11:46:18.983Z,24.00
2019-02-23T11:48:47.268Z,23.80
2019-02-23T11:51:15.523Z,24.20
2019-02-23T11:53:54.366Z,24.20
2019-02-23T11:56:12.123Z,24.20
2019-02-23T11:58:40.572Z,25.10
2019-02-23T12:01:08.853Z,24.80
2019-02-23T12:03:37.115Z,23.90
2019-02-23T12:06:05.398Z,23.90
2019-02-23T12:08:33.755Z,24.60
2019-02-23T12:11:02.199Z,24.40
2019-02-23T12:13:30.429Z,24.80
2019-02-23T12:15:58.735Z,24.80
2019-02-23T12:18:27.758Z,24.60
2019-02-23T12:20:56.032Z,24.60
2019-02-23T12:23:24.338Z,23.70
2019-02-23T12:25:52.606Z,23.20
2019-02-23T12:28:20.875Z,22.90
2019-02-23T12:30:49.255Z,24.10
2019-02-23T12:33:17.528Z,23.10
2019-02-23T12:35:45.843Z,22.40
2019-02-23T12:38:14.179Z,22.90
2019-02-23T12:40:42.467Z,22.70
2019-02-23T12:43:10.848Z,23.70
2019-02-23T12:45:39.230Z,23.40
2019-02-23T12:48:07.482Z,24.20
2019-02-23T12:50:35.786Z,25.30
2019-02-23T12:53:04.243Z,26.00
2019-02-23T12:55:32.520Z,24.70
2019-02-23T12:58:00.799Z,24.40
2019-02-23T13:00:29.065Z,25.20
2019-02-23T13:02:57.330Z,25.40
2019-02-23T13:05:25.640Z,23.00
2019-02-23T13:07:53.944Z,22.80
2019-02-23T13:10:22.196Z,23.10
2019-02-23T13:12:55.162Z,23.40
2019-02-23T13:15:24.969Z,21.90
2019-02-23T13:17:55.835Z,21.50
2019-02-23T13:23:44.065Z,22.40
2019-02-23T13:29:24.519Z,23.00
2019-02-23T13:32:01.530Z,23.00
2019-02-23T13:34:33.482Z,24.40
2019-02-23T13:40:06.486Z,22.70
2019-02-23T13:42:36.407Z,23.50
2019-02-23T13:45:12.467Z,24.40
2019-02-23T13:47:49.346Z,24.50
2019-02-23T13:50:35.260Z,25.20
2019-02-23T13:56:16.662Z,25.90
2019-02-23T13:58:50.543Z,26.30
2019-02-23T14:01:22.729Z,26.30
2019-02-23T14:03:57.002Z,26.60
2019-02-23T14:06:26.942Z,26.70
2019-02-23T14:09:07.303Z,26.70
2019-02-23T14:11:45.512Z,25.30
2019-02-23T14:14:30.461Z,25.50
2019-02-23T14:17:04.601Z,25.30
2019-02-23T14:22:55.195Z,26.80
2019-02-23T14:25:33.112Z,26.70
2019-02-23T14:28:25.915Z,26.50
2019-02-23T14:30:58.835Z,26.90
2019-02-23T14:33:48.923Z,26.60
2019-02-23T14:36:19.877Z,26.70
2019-02-23T14:41:56.726Z,27.00
2019-02-23T14:44:27.831Z,27.00
2019-02-23T14:47:12.876Z,27.20
2019-02-23T14:53:05.653Z,26.00
2019-02-23T14:55:54.595Z,27.20
2019-02-23T14:58:45.371Z,27.00
2019-02-23T15:01:20.362Z,27.60
2019-02-23T15:04:08.152Z,27.50
2019-02-23T15:06:43.093Z,27.10
2019-02-23T15:09:20.941Z,27.60
2019-02-23T15:14:57.662Z,28.00
2019-02-23T15:17:33.639Z,28.30
2019-02-23T15:26:25.154Z,28.10
2019-02-23T15:29:04.951Z,28.60
2019-02-23T15:31:38.730Z,28.60
2019-02-23T15:34:12.677Z,28.60
2019-02-23T15:40:01.846Z,29.20
2019-02-23T15:42:38.951Z,29.70
2019-02-23T15:45:22.611Z,30.10
2019-02-23T15:48:06.500Z,30.40
2019-02-23T15:50:34.802Z,29.70
2019-02-23T15:53:03.082Z,29.70
2019-02-23T15:55:31.426Z,29.90
2019-02-23T15:57:59.703Z,29.90
2019-02-23T16:00:28.104Z,30.10
2019-02-23T16:02:56.256Z,30.10
2019-02-23T16:05:24.543Z,29.90
2019-02-23T16:07:52.904Z,30.30
2019-02-23T16:10:21.162Z,34.40
2019-02-23T16:12:50.176Z,30.70
2019-02-23T16:15:18.439Z,30.70
2019-02-23T16:17:46.824Z,31.10
2019-02-23T16:20:15.086Z,31.80
2019-02-23T16:22:43.665Z,31.30
2019-02-23T16:25:11.827Z,31.10
2019-02-23T16:27:40.846Z,31.50
2019-02-23T16:30:09.122Z,31.40
2019-02-23T16:32:37.420Z,31.80
2019-02-23T16:35:05.721Z,31.70
2019-02-23T16:37:34.003Z,32.20
2019-02-23T16:40:03.123Z,32.00
2019-02-23T16:42:31.527Z,31.90
2019-02-23T16:44:59.795Z,32.30
2019-02-23T16:47:28.176Z,32.40
2019-02-23T16:49:56.444Z,32.30
2019-02-23T16:52:24.779Z,32.20
2019-02-23T16:54:53.798Z,33.00
2019-02-23T16:57:22.078Z,32.90
2019-02-23T16:59:50.980Z,32.70
2019-02-23T17:02:19.271Z,32.80
2019-02-23T17:04:53.671Z,32.70
2019-02-23T17:07:16.127Z,33.10
2019-02-23T17:09:44.396Z,33.20
2019-02-23T17:12:12.707Z,33.20
2019-02-23T17:14:40.976Z,32.90
2019-02-23T17:17:09.288Z,33.50
2019-02-23T17:19:37.563Z,32.50
2019-02-23T17:22:05.912Z,32.30
2019-02-23T17:24:34.134Z,31.70
2019-02-23T17:27:02.403Z,31.00
2019-02-23T17:29:30.701Z,30.10
2019-02-23T17:31:58.987Z,30.00
2019-02-23T17:34:27.274Z,29.20
2019-02-23T17:36:55.572Z,28.60
2019-02-23T17:39:24.615Z,27.80
2019-02-23T17:41:52.872Z,27.80
2019-02-23T17:44:21.236Z,27.50
2019-02-23T17:46:49.519Z,27.30
2019-02-23T17:49:18.848Z,27.00
2019-02-23T17:51:47.120Z,27.20
2019-02-23T17:54:15.415Z,26.20
2019-02-23T17:56:43.819Z,25.40
2019-02-23T17:59:12.062Z,25.60
2019-02-23T18:01:40.302Z,25.30
2019-02-23T18:04:09.351Z,25.50
2019-02-23T18:06:37.613Z,25.50
2019-02-23T18:09:05.915Z,25.00
2019-02-23T18:11:34.240Z,25.30
2019-02-23T18:14:02.490Z,25.30
2019-02-23T18:16:31.496Z,25.60
2019-02-23T18:18:59.786Z,25.60
2019-02-23T18:21:28.139Z,25.90
2019-02-23T18:23:56.407Z,25.00
2019-02-23T18:26:24.713Z,25.40
2019-02-23T18:28:53.007Z,25.00
2019-02-23T18:31:21.371Z,24.50
2019-02-23T18:33:49.635Z,25.20
2019-02-23T18:36:17.905Z,24.90
2019-02-23T18:38:46.208Z,24.60
2019-02-23T18:41:14.580Z,24.60
2019-02-23T18:43:42.867Z,25.30
2019-02-23T18:46:11.193Z,25.00
2019-02-23T18:48:39.945Z,24.60
2019-02-23T18:51:08.316Z,25.40
2019-02-23T18:53:37.489Z,26.00
2019-02-23T18:56:05.766Z,25.70
2019-02-23T18:58:34.043Z,26.10
2019-02-23T19:01:02.403Z,25.80
2019-02-23T19:03:30.703Z,26.10
2019-02-23T19:05:58.997Z,25.80
2019-02-23T19:08:28.770Z,26.40
2019-02-23T19:10:57.047Z,26.40
2019-02-23T19:13:25.315Z,26.00
2019-02-23T19:15:53.710Z,26.00
2019-02-23T19:18:21.986Z,26.20
2019-02-23T19:20:50.266Z,25.50
2019-02-23T19:23:19.119Z,24.70
2019-02-23T19:25:47.400Z,25.30
2019-02-23T19:28:15.693Z,25.50
2019-02-23T19:30:43.987Z,24.80
2019-02-23T19:33:13.766Z,24.40
2019-02-23T19:35:42.099Z,24.40
2019-02-23T19:38:10.293Z,24.40
2019-02-23T19:40:39.314Z,24.60
2019-02-23T19:43:07.579Z,24.60
2019-02-23T19:45:35.867Z,25.30
2019-02-23T19:48:04.771Z,25.20
2019-02-23T19:50:33.964Z,24.90
2019-02-23T19:53:02.235Z,24.90
2019-02-23T19:55:30.518Z,24.80
2019-02-23T19:57:58.779Z,24.80
2019-02-23T20:00:27.111Z,25.10
2019-02-23T20:02:56.131Z,25.40
2019-02-23T20:05:24.435Z,25.40
2019-02-23T20:07:52.826Z,25.10
2019-02-23T20:10:21.185Z,25.50
2019-02-23T20:12:49.454Z,25.30
2019-02-23T20:15:18.104Z,25.90
2019-02-23T20:17:46.371Z,25.90
2019-02-23T20:20:15.419Z,26.00
2019-02-23T20:22:43.672Z,26.00
2019-02-23T20:25:11.971Z,26.20
2019-02-23T20:27:40.239Z,26.30
2019-02-23T20:30:09.337Z,27.20
2019-02-23T20:32:37.607Z,26.50
2019-02-23T20:35:05.982Z,27.10
2019-02-23T20:37:34.263Z,27.00
2019-02-23T20:40:02.535Z,26.70
2019-02-23T20:42:30.807Z,26.50
2019-02-23T20:44:59.098Z,27.20
2019-02-23T20:47:27.381Z,27.30
2019-02-23T20:49:55.693Z,27.50
2019-02-23T20:52:24.843Z,27.90
2019-02-23T20:54:53.222Z,27.90
2019-02-23T20:57:21.587Z,28.00
2019-02-23T20:59:49.860Z,27.70
2019-02-23T21:02:18.715Z,28.10
2019-02-23T21:04:47.127Z,28.10
2019-02-23T21:07:15.408Z,28.20
2019-02-23T21:09:43.695Z,28.40
2019-02-23T21:12:11.986Z,28.50
2019-02-23T21:14:40.334Z,28.40
2019-02-23T21:17:09.429Z,28.00
2019-02-23T21:19:37.707Z,28.00
2019-02-23T21:22:05.981Z,27.90
2019-02-23T21:24:34.266Z,28.70
2019-02-23T21:27:02.577Z,28.60
2019-02-23T21:29:30.842Z,29.10
2019-02-23T21:32:00.707Z,29.00
2019-02-23T21:34:28.999Z,29.00
2019-02-23T21:36:57.376Z,29.50
2019-02-23T21:39:25.659Z,29.00
2019-02-23T21:41:54.023Z,29.10
2019-02-23T21:44:22.308Z,29.30
2019-02-23T21:46:50.679Z,29.10
2019-02-23T21:49:18.942Z,29.20
2019-02-23T21:51:47.238Z,29.50
2019-02-23T21:54:15.569Z,30.00
2019-02-23T21:56:43.780Z,30.40
2019-02-23T21:59:12.076Z,30.80
2019-02-23T22:01:40.540Z,31.20
2019-02-23T22:04:08.807Z,31.20
2019-02-23T22:06:37.183Z,31.90
2019-02-23T22:09:05.469Z,31.90
2019-02-23T22:11:33.730Z,32.50
2019-02-23T22:14:01.989Z,32.70
2019-02-23T22:16:30.395Z,32.80
2019-02-23T22:18:58.822Z,33.60
2019-02-23T22:21:27.080Z,33.30
2019-02-23T22:23:55.427Z,33.20
2019-02-23T22:26:23.795Z,33.50
2019-02-23T22:28:52.048Z,33.20
2019-02-23T22:31:21.150Z,33.60
2019-02-23T22:33:50.167Z,33.10
2019-02-23T22:36:18.440Z,33.10
2019-02-23T22:38:46.811Z,32.80
2019-02-23T22:41:15.083Z,31.80
2019-02-23T22:43:43.392Z,31.90
2019-02-23T22:46:11.746Z,31.50
2019-02-23T22:48:40.115Z,31.30
2019-02-23T22:51:08.390Z,32.70
2019-02-23T22:53:36.762Z,31.80
2019-02-23T22:56:05.039Z,31.80
2019-02-23T22:58:33.299Z,31.90
2019-02-23T23:01:01.572Z,31.60
2019-02-23T23:03:29.858Z,32.00
2019-02-23T23:05:58.129Z,32.50
2019-02-23T23:08:26.415Z,31.70
2019-02-23T23:10:54.836Z,32.10
2019-02-23T23:13:23.067Z,32.40
2019-02-23T23:15:51.335Z,32.20
2019-02-23T23:18:19.620Z,32.70
2019-02-23T23:20:47.866Z,34.20
2019-02-23T23:23:16.974Z,34.20
2019-02-23T23:25:45.202Z,34.20
2019-02-23T23:28:13.471Z,35.10
2019-02-23T23:30:41.834Z,34.50
2019-02-23T23:33:10.115Z,33.90
2019-02-23T23:35:38.410Z,34.10
2019-02-23T23:38:06.752Z,34.90
2019-02-23T23:40:35.024Z,34.70
2019-02-23T23:43:03.302Z,34.70
2019-02-23T23:45:31.538Z,34.90
2019-02-23T23:47:59.795Z,35.00
2019-02-23T23:50:28.154Z,35.50
2019-02-23T23:52:56.603Z,35.60
2019-02-23T23:55:24.895Z,36.10
2019-02-23T23:57:58.317Z,35.80
